EastWest Aircraft Sales has several offices across the USA. See map for information on the nearest airstrips.

Naples Municipal Airport

Available data for KAPF from the past 2 hours
NAPLES MUNICIPAL, FL
Metar
KAPF 121153Z 00000KT 10SM CLR 19/17 A2996 RMK AO2 SLP143 T01940172 10206 20183 53000 $

11:53 UTC

Wind: 0° 0kt

Visibility: 10 SM

Sky:

Temp: 19 deg C / 66.2 deg F

Dewpoint: 17 deg C / 62.6 deg F

Pressure: 29.96 inHg

TAF
KAPF 121120Z 1212/1312 VRB03KT P6SM FEW050 FM121400 11005KT P6SM FEW020 FEW250 FM121700 24008KT P6SM FEW040 SCT250 FM122000 29008KT P6SM FEW035 SCT250 FM130200 35005KT P6SM FEW050 SCT250

Hillsboro Airport

Available data for KHIO from the past 2 hours
HILLSBORO/PORTLD, OR